Time;durP1;ratioP1;P1;durP2;ratioP2;P2;SDS_P1;SDS_P2;PMS_P1;PMS_P2;Temp;Humidity;BMP_temperature;BMP_pressure;BME280_temperature;BME280_humidity;BME280_pressure;Samples;Min_cycle;Max_cycle;Signal;HPM_P1;HPM_P2
2024/01/21 00:00:16;;;;;;;;;;;;;;;;;;;;;
2024/01/21 00:02:44;;;;;;;0.00;0.00;;;;;;;4.59;85.32;100177.97;4989199;28;20109;-79
2024/01/21 00:05:24;;;;;;;0.00;0.00;;;;;;;4.37;85.85;100148.72;4969912;28;20106;-80
2024/01/21 00:07:57;;;;;;;0.00;0.00;;;;;;;4.17;89.30;100136.28;4969739;28;20027;-79
2024/01/21 00:10:25;;;;;;;0.00;0.00;;;;;;;4.20;92.17;100172.91;4977896;28;20027;-79
2024/01/21 00:12:50;;;;;;;0.00;0.00;;;;;;;3.80;94.71;100125.56;4973619;28;20030;-79
2024/01/21 00:15:18;;;;;;;0.00;0.00;;;;;;;3.75;98.20;100132.72;4971129;28;20127;-78
2024/01/21 00:17:44;;;;;;;0.00;0.00;;;;;;;3.49;100.00;100107.69;4974902;28;20448;-78
2024/01/21 00:20:12;;;;;;;0.10;0.10;;;;;;;3.72;100.00;100162.94;4976750;28;20027;-78
2024/01/21 00:22:40;;;;;;;0.00;0.00;;;;;;;3.57;100.00;100153.31;4976412;28;20122;-78
2024/01/21 00:25:11;;;;;;;0.00;0.00;;;;;;;3.60;100.00;100155.56;4980683;28;20019;-78
2024/01/21 00:28:07;;;;;;;;;;;;;;;;;;;;;
2024/01/21 00:30:56;;;;;;;0.00;0.00;;;;;;;3.39;100.00;100118.19;4980525;28;20105;-78
2024/01/21 00:33:34;;;;;;;0.00;0.00;;;;;;;3.26;100.00;100103.78;4967827;28;20086;-78
2024/01/21 00:36:00;;;;;;;0.00;0.00;;;;;;;3.29;100.00;100111.44;4955562;28;20634;-77
2024/01/21 00:38:38;;;;;;;;;;;;;;;;;;;;;
2024/01/21 00:41:36;;;;;;;0.00;0.00;;;;;;;3.17;100.00;100067.31;4982453;28;20026;-77
2024/01/21 00:44:02;;;;;;;0.00;0.00;;;;;;;3.21;100.00;100063.09;4990840;28;20027;-76
2024/01/21 00:46:29;;;;;;;0.00;0.00;;;;;;;3.27;100.00;100056.78;4969088;28;20030;-77
2024/01/21 00:48:54;;;;;;;0.10;0.10;;;;;;;3.51;100.00;100085.81;4968358;28;20038;-77
2024/01/21 00:51:20;;;;;;;0.00;0.00;;;;;;;3.47;100.00;100061.09;4954198;28;20030;-77
2024/01/21 00:53:46;;;;;;;0.00;0.00;;;;;;;3.46;100.00;100051.34;4976362;28;20468;-75
2024/01/21 00:56:11;;;;;;;0.08;0.08;;;;;;;3.52;100.00;100053.16;4973472;28;20027;-77
2024/01/21 00:58:37;;;;;;;0.00;0.00;;;;;;;3.54;100.00;100051.03;4977239;28;20113;-76
2024/01/21 01:01:02;;;;;;;0.00;0.00;;;;;;;3.47;100.00;100025.97;4966782;28;20055;-78
2024/01/21 01:03:28;;;;;;;0.00;0.00;;;;;;;3.66;100.00;100048.38;4977402;28;20034;-78
2024/01/21 01:05:53;;;;;;;0.00;0.00;;;;;;;3.57;100.00;100041.66;4989406;28;20034;-78
2024/01/21 01:08:19;;;;;;;0.00;0.00;;;;;;;3.57;100.00;100023.53;4971183;28;20485;-77
2024/01/21 01:10:44;;;;;;;0.00;0.00;;;;;;;3.65;100.00;100025.06;4961744;28;20029;-77
2024/01/21 01:13:29;;;;;;;0.00;0.00;;;;;;;3.58;100.00;100003.56;4979656;28;20039;-79
2024/01/21 01:15:58;;;;;;;0.00;0.00;;;;;;;3.61;100.00;100000.41;4986038;28;20042;-77
2024/01/21 01:18:25;;;;;;;0.00;0.00;;;;;;;3.71;100.00;100004.41;4970879;28;20034;-76
2024/01/21 01:20:51;;;;;;;0.00;0.00;;;;;;;3.71;100.00;99985.47;4986360;28;20018;-77
2024/01/21 01:23:19;;;;;;;0.00;0.00;;;;;;;3.80;100.00;100000.34;4971039;28;20027;-78
2024/01/21 01:25:44;;;;;;;0.00;0.00;;;;;;;3.89;100.00;100001.63;4971142;28;20023;-75
2024/01/21 01:28:10;;;;;;;0.00;0.00;;;;;;;3.63;100.00;99946.09;4965309;28;20031;-77
2024/01/21 01:30:36;;;;;;;0.00;0.00;;;;;;;3.98;100.00;99986.72;4971927;28;20031;-80
2024/01/21 01:33:02;;;;;;;0.00;0.00;;;;;;;3.99;100.00;99955.09;4968644;28;20053;-77
2024/01/21 01:35:27;;;;;;;0.00;0.00;;;;;;;4.15;100.00;99969.81;4961129;28;20117;-77
2024/01/21 01:37:53;;;;;;;0.00;0.00;;;;;;;4.22;100.00;99980.50;4967656;28;20027;-77
2024/01/21 01:40:20;;;;;;;0.00;0.00;;;;;;;4.12;100.00;99957.56;4986485;28;20620;-77
2024/01/21 01:42:58;;;;;;;0.00;0.00;;;;;;;4.18;100.00;99970.16;4977157;28;20037;-78
2024/01/21 01:45:28;;;;;;;0.00;0.00;;;;;;;4.17;100.00;99948.72;4965748;28;20029;-76
2024/01/21 01:48:04;;;;;;;0.00;0.00;;;;;;;4.18;100.00;99947.69;4951349;28;20109;-76
2024/01/21 01:50:31;;;;;;;0.00;0.00;;;;;;;4.24;100.00;99945.91;4973471;28;20042;-76
2024/01/21 01:52:59;;;;;;;0.00;0.00;;;;;;;4.42;100.00;99974.75;4976073;28;20034;-76
2024/01/21 01:55:26;;;;;;;0.00;0.00;;;;;;;4.24;100.00;99935.91;4957653;28;20030;-77
2024/01/21 01:57:51;;;;;;;0.00;0.00;;;;;;;4.47;100.00;99966.75;4959207;28;20027;-76
2024/01/21 02:00:17;;;;;;;0.00;0.00;;;;;;;4.37;100.00;99935.66;4961613;28;20092;-77
2024/01/21 02:02:43;;;;;;;0.00;0.00;;;;;;;4.49;100.00;99970.03;4974927;28;20118;-77
2024/01/21 02:05:09;;;;;;;0.00;0.00;;;;;;;4.53;100.00;99965.78;4943489;28;20123;-78
2024/01/21 02:07:35;;;;;;;0.00;0.00;;;;;;;4.46;100.00;99943.44;4978641;28;20010;-77
2024/01/21 02:10:03;;;;;;;0.00;0.00;;;;;;;4.47;100.00;99942.38;4973695;28;20098;-77
2024/01/21 02:12:29;;;;;;;0.00;0.00;;;;;;;4.44;100.00;99940.13;4954251;28;20032;-75
2024/01/21 02:14:57;;;;;;;0.00;0.00;;;;;;;4.49;100.00;99945.66;4973608;28;20078;-77
2024/01/21 02:17:23;;;;;;;0.00;0.00;;;;;;;4.60;100.00;99961.06;4970299;28;20090;-78
2024/01/21 02:19:48;;;;;;;0.00;0.00;;;;;;;4.57;100.00;99955.28;4985239;28;20011;-77
2024/01/21 02:22:14;;;;;;;0.00;0.00;;;;;;;4.52;100.00;99959.53;4957308;28;20033;-77
2024/01/21 02:24:40;;;;;;;0.00;0.00;;;;;;;4.62;100.00;99950.81;4938241;28;20094;-77
2024/01/21 02:27:05;;;;;;;0.10;0.10;;;;;;;4.64;100.00;99940.56;4952936;28;20030;-77
2024/01/21 02:29:33;;;;;;;0.00;0.00;;;;;;;4.60;100.00;99923.16;4966225;28;20022;-77
2024/01/21 02:31:58;;;;;;;0.00;0.00;;;;;;;4.56;100.00;99916.56;4951517;28;20059;-77
2024/01/21 02:34:24;;;;;;;0.00;0.00;;;;;;;4.70;100.00;99950.44;4939648;28;20169;-77
2024/01/21 02:36:50;;;;;;;0.00;0.00;;;;;;;4.74;100.00;99960.81;4978704;28;20031;-75
2024/01/21 02:39:15;;;;;;;0.00;0.00;;;;;;;4.68;100.00;99949.84;4971981;28;20030;-75
2024/01/21 02:41:41;;;;;;;0.00;0.00;;;;;;;4.76;100.00;99927.00;4947631;28;20516;-76
2024/01/21 02:44:06;;;;;;;0.00;0.00;;;;;;;4.69;100.00;99920.91;4963300;28;20062;-76
2024/01/21 02:46:32;;;;;;;0.00;0.00;;;;;;;4.87;100.00;99947.81;4986029;28;20030;-74
2024/01/21 02:48:57;;;;;;;0.00;0.00;;;;;;;4.76;100.00;99912.63;4975910;28;20044;-75
2024/01/21 02:51:22;;;;;;;0.00;0.00;;;;;;;4.82;100.00;99895.41;4965685;28;20019;-75
2024/01/21 02:53:48;;;;;;;0.00;0.00;;;;;;;4.98;100.00;99916.31;4975306;28;20033;-76
2024/01/21 02:56:26;;;;;;;0.10;0.10;;;;;;;4.99;100.00;99903.59;4950158;28;20545;-75
2024/01/21 02:58:57;;;;;;;0.10;0.10;;;;;;;5.02;100.00;99870.59;4976414;28;20053;-76
2024/01/21 03:01:22;;;;;;;0.00;0.00;;;;;;;4.98;100.00;99859.41;4966909;28;20065;-75
2024/01/21 03:04:12;;;;;;;0.00;0.00;;;;;;;5.09;100.00;99859.59;4977403;28;20113;-76
2024/01/21 03:06:37;;;;;;;0.00;0.00;;;;;;;4.99;100.00;99833.94;4957858;28;20905;-76
2024/01/21 03:09:03;;;;;;;0.08;0.08;;;;;;;5.09;100.00;99840.63;4962463;28;20058;-76
2024/01/21 03:11:29;;;;;;;0.00;0.00;;;;;;;5.21;100.00;99872.03;4966117;28;20033;-75
2024/01/21 03:13:55;;;;;;;0.00;0.00;;;;;;;5.28;100.00;99890.84;4976432;28;20061;-75
2024/01/21 03:16:20;;;;;;;0.00;0.00;;;;;;;5.32;100.00;99897.44;4950630;28;20059;-77
2024/01/21 03:18:46;;;;;;;0.00;0.00;;;;;;;5.13;100.00;99855.34;4930211;28;20019;-76
2024/01/21 03:21:14;;;;;;;0.00;0.00;;;;;;;5.39;100.00;99881.81;4981180;28;20037;-76
2024/01/21 03:23:39;;;;;;;0.00;0.00;;;;;;;5.41;100.00;99863.41;4978409;28;20069;-77
2024/01/21 03:26:04;;;;;;;0.00;0.00;;;;;;;5.35;100.00;99848.13;4977588;28;20030;-78
2024/01/21 03:28:30;;;;;;;0.00;0.00;;;;;;;5.50;100.00;99874.69;4968438;28;20056;-76
2024/01/21 03:30:55;;;;;;;0.00;0.00;;;;;;;5.50;100.00;99882.00;4945722;28;20070;-76
2024/01/21 03:33:21;;;;;;;0.00;0.00;;;;;;;5.54;100.00;99878.53;4947714;28;20573;-75
2024/01/21 03:35:47;;;;;;;0.00;0.00;;;;;;;5.58;100.00;99878.88;4956216;28;20089;-76
2024/01/21 03:38:13;;;;;;;0.05;0.05;;;;;;;5.65;100.00;99871.41;4968752;28;20109;-76
2024/01/21 03:40:38;;;;;;;0.00;0.00;;;;;;;5.69;100.00;99880.69;4988193;28;20160;-76
2024/01/21 03:43:03;;;;;;;0.00;0.00;;;;;;;5.61;100.00;99856.69;4968098;28;20027;-76
2024/01/21 03:45:34;;;;;;;0.00;0.00;;;;;;;5.64;100.00;99837.22;4939884;28;20425;-75
2024/01/21 03:47:59;;;;;;;0.00;0.00;;;;;;;5.80;100.00;99869.97;4964209;28;20018;-76
2024/01/21 03:50:25;;;;;;;0.00;0.00;;;;;;;5.74;100.00;99840.06;4950273;28;20039;-76
2024/01/21 03:52:50;;;;;;;0.00;0.00;;;;;;;5.84;100.00;99838.56;4955155;28;20517;-76
2024/01/21 03:55:16;;;;;;;0.00;0.00;;;;;;;5.76;100.00;99810.78;4964391;28;20057;-75
2024/01/21 03:57:45;;;;;;;0.00;0.00;;;;;;;5.98;100.00;99836.38;4983072;28;20108;-75
2024/01/21 04:00:11;;;;;;;0.00;0.00;;;;;;;6.05;100.00;99834.31;4985234;28;20654;-76
2024/01/21 04:02:37;;;;;;;0.00;0.00;;;;;;;6.16;100.00;99849.63;4988305;28;20030;-75
2024/01/21 04:05:03;;;;;;;0.00;0.00;;;;;;;6.23;100.00;99852.19;4969392;28;20209;-77
2024/01/21 04:07:30;;;;;;;0.00;0.00;;;;;;;6.20;100.00;99841.81;4982694;28;20061;-74
2024/01/21 04:09:56;;;;;;;0.00;0.00;;;;;;;6.25;100.00;99822.88;4982921;28;20340;-76
2024/01/21 04:12:24;;;;;;;0.00;0.00;;;;;;;6.38;100.00;99833.38;4965626;28;20038;-75
2024/01/21 04:14:49;;;;;;;0.10;0.10;;;;;;;6.43;100.00;99841.56;4980654;28;20096;-75
2024/01/21 04:17:15;;;;;;;0.00;0.00;;;;;;;6.55;100.00;99848.78;4972816;28;20413;-75
2024/01/21 04:19:48;;;;;;;0.00;0.00;;;;;;;6.58;100.00;99840.13;4969405;28;20061;-75
2024/01/21 04:22:18;;;;;;;0.00;0.00;;;;;;;6.70;100.00;99838.09;4975929;28;20025;-76
2024/01/21 04:24:43;;;;;;;0.00;0.00;;;;;;;6.77;100.00;99830.56;4956175;28;20436;-75
2024/01/21 04:27:08;;;;;;;0.08;0.08;;;;;;;6.79;100.00;99827.56;4961263;28;20030;-76
2024/01/21 04:29:36;;;;;;;0.00;0.00;;;;;;;6.90;100.00;99828.53;4948227;28;20077;-73
2024/01/21 04:32:02;;;;;;;0.00;0.00;;;;;;;6.90;100.00;99813.03;4973953;28;20023;-75
2024/01/21 04:34:27;;;;;;;0.00;0.00;;;;;;;6.97;100.00;99812.84;4956039;28;20022;-75
2024/01/21 04:36:53;;;;;;;0.00;0.00;;;;;;;7.08;100.00;99814.56;4945793;28;20032;-75
2024/01/21 04:39:21;;;;;;;0.00;0.00;;;;;;;7.05;100.00;99793.31;4959834;28;20034;-76
2024/01/21 04:41:47;;;;;;;0.00;0.00;;;;;;;7.23;100.00;99804.88;4953112;28;20026;-77
2024/01/21 04:44:13;;;;;;;0.00;0.00;;;;;;;7.32;100.00;99816.94;4984380;28;20389;-75
2024/01/21 04:46:38;;;;;;;0.00;0.00;;;;;;;7.38;100.00;99815.91;4971147;28;20103;-76
2024/01/21 04:49:03;;;;;;;0.00;0.00;;;;;;;7.38;100.00;99802.31;4962645;28;20034;-75
2024/01/21 04:51:29;;;;;;;0.00;0.00;;;;;;;7.46;100.00;99798.28;4956436;28;20101;-77
2024/01/21 04:53:54;;;;;;;0.00;0.00;;;;;;;7.51;100.00;99801.84;4941523;28;20027;-74
2024/01/21 04:56:20;;;;;;;0.00;0.00;;;;;;;7.64;100.00;99827.00;4967902;28;20031;-76
2024/01/21 04:58:46;;;;;;;0.00;0.00;;;;;;;7.67;100.00;99816.41;4950709;28;20081;-77
2024/01/21 05:01:12;;;;;;;0.00;0.00;;;;;;;7.71;100.00;99800.38;4976656;28;20026;-75
2024/01/21 05:03:59;;;;;;;;;;;;;;;;;;;;;
2024/01/21 05:06:27;;;;;;;0.00;0.00;;;;;;;7.78;100.00;99781.06;4986348;28;20034;-78
2024/01/21 05:08:52;;;;;;;0.00;0.00;;;;;;;7.94;100.00;99803.75;4976715;28;20045;-76
2024/01/21 05:11:17;;;;;;;0.00;0.00;;;;;;;7.96;100.00;99796.16;4973335;28;20015;-77
2024/01/21 05:13:43;;;;;;;0.00;0.00;;;;;;;8.08;100.00;99799.50;4977144;28;20035;-75
2024/01/21 05:16:08;;;;;;;0.00;0.00;;;;;;;8.13;100.00;99817.75;4981927;28;20046;-75
2024/01/21 05:18:37;;;;;;;0.00;0.00;;;;;;;8.21;100.00;99839.84;4954450;28;20031;-75
2024/01/21 05:21:03;;;;;;;0.00;0.00;;;;;;;8.16;100.00;99815.34;4963537;28;20031;-75
2024/01/21 05:23:28;;;;;;;0.10;0.10;;;;;;;8.27;100.00;99829.00;4982031;28;20045;-75
2024/01/21 05:25:54;;;;;;;0.00;0.00;;;;;;;8.28;100.00;99849.69;4966486;28;20031;-75
2024/01/21 05:28:20;;;;;;;0.00;0.00;;;;;;;8.31;100.00;99832.81;4957679;28;20070;-74
2024/01/21 05:30:45;;;;;;;0.00;0.00;;;;;;;8.33;100.00;99819.75;4982292;28;20108;-76
2024/01/21 05:33:11;;;;;;;0.00;0.00;;;;;;;8.37;100.00;99832.59;4954232;28;20019;-74
2024/01/21 05:35:36;;;;;;;0.00;0.00;;;;;;;8.40;100.00;99858.47;4946687;28;20034;-75
2024/01/21 05:38:02;;;;;;;0.00;0.00;;;;;;;8.47;100.00;99916.31;4955551;28;20050;-74
2024/01/21 05:40:27;;;;;;;0.00;0.00;;;;;;;8.49;100.00;99865.09;4956586;28;20025;-76
2024/01/21 05:42:53;;;;;;;0.00;0.00;;;;;;;8.50;100.00;99861.28;4954797;28;20121;-75
2024/01/21 05:45:19;;;;;;;0.00;0.00;;;;;;;8.48;100.00;99874.34;4956333;28;20121;-74
2024/01/21 05:47:45;;;;;;;0.00;0.00;;;;;;;8.29;100.00;99857.59;4981400;28;20122;-75
2024/01/21 05:50:10;;;;;;;0.00;0.00;;;;;;;8.41;100.00;99876.47;4977019;28;20526;-75
2024/01/21 05:52:36;;;;;;;0.00;0.00;;;;;;;8.29;100.00;99876.66;4962865;28;20038;-75
2024/01/21 05:55:03;;;;;;;0.00;0.00;;;;;;;8.25;100.00;99874.75;4966286;28;20018;-76
2024/01/21 05:57:29;;;;;;;0.00;0.00;;;;;;;8.28;100.00;99896.00;4958162;28;20128;-74
2024/01/21 05:59:55;;;;;;;0.00;0.00;;;;;;;8.32;100.00;99889.78;4955401;28;20526;-75
2024/01/21 06:02:20;;;;;;;0.00;0.00;;;;;;;8.30;100.00;99891.13;4976182;28;20035;-75
2024/01/21 06:04:46;;;;;;;0.10;0.10;;;;;;;8.26;100.00;99892.72;4984420;28;20531;-76
2024/01/21 06:07:11;;;;;;;0.00;0.00;;;;;;;8.28;100.00;99906.91;4950749;28;20031;-76
2024/01/21 06:09:37;;;;;;;0.00;0.00;;;;;;;8.32;100.00;99900.69;4947998;28;20022;-76
2024/01/21 06:12:02;;;;;;;0.00;0.00;;;;;;;8.36;100.00;99881.88;4978803;28;20706;-74
2024/01/21 06:14:28;;;;;;;0.00;0.00;;;;;;;8.28;100.00;99885.09;4955938;28;20038;-74
2024/01/21 06:16:53;;;;;;;0.00;0.00;;;;;;;8.31;100.00;99890.03;4943509;28;20030;-74
2024/01/21 06:19:19;;;;;;;0.00;0.00;;;;;;;8.27;100.00;99881.56;4944713;28;20023;-76
2024/01/21 06:21:44;;;;;;;0.00;0.00;;;;;;;8.22;100.00;99903.34;4956729;28;20551;-75
2024/01/21 06:24:13;;;;;;;0.00;0.00;;;;;;;8.19;100.00;99901.13;4977302;28;20118;-74
2024/01/21 06:26:40;;;;;;;0.10;0.10;;;;;;;8.25;100.00;99924.59;4983792;28;20030;-75
2024/01/21 06:29:06;;;;;;;0.00;0.00;;;;;;;8.16;100.00;99901.66;4976132;28;20085;-75
2024/01/21 06:31:32;;;;;;;0.00;0.00;;;;;;;8.02;100.00;99874.88;4978754;28;20450;-76
2024/01/21 06:33:57;;;;;;;0.00;0.00;;;;;;;8.16;100.00;99921.56;4984468;28;20054;-75
2024/01/21 06:36:23;;;;;;;0.00;0.00;;;;;;;8.16;100.00;99940.63;4952411;28;20022;-74
2024/01/21 06:38:49;;;;;;;0.00;0.00;;;;;;;8.11;100.00;99940.56;4985905;28;20026;-74
2024/01/21 06:41:17;;;;;;;0.00;0.00;;;;;;;8.13;100.00;99952.03;4957342;28;20029;-74
2024/01/21 06:43:43;;;;;;;0.00;0.00;;;;;;;8.10;100.00;99957.97;4971130;28;20027;-75
2024/01/21 06:46:09;;;;;;;0.00;0.00;;;;;;;8.10;100.00;99960.72;4951378;28;20022;-75
2024/01/21 06:48:34;;;;;;;0.00;0.00;;;;;;;8.07;100.00;99972.13;4987993;28;20027;-75
2024/01/21 06:51:04;;;;;;;0.00;0.00;;;;;;;8.02;100.00;99970.19;4980305;28;20365;-75
2024/01/21 06:53:32;;;;;;;0.00;0.00;;;;;;;8.11;100.00;99959.63;4964930;28;20031;-74
2024/01/21 06:55:57;;;;;;;0.00;0.00;;;;;;;8.07;100.00;99957.69;4941187;28;20022;-74
2024/01/21 06:58:22;;;;;;;0.10;0.10;;;;;;;7.97;100.00;99933.94;4956808;28;20373;-74
2024/01/21 07:00:51;;;;;;;0.00;0.00;;;;;;;7.96;100.00;99932.31;4981630;28;20030;-75
2024/01/21 07:03:18;;;;;;;0.10;0.10;;;;;;;8.09;100.00;99969.97;4969579;28;20035;-76
2024/01/21 07:05:43;;;;;;;0.00;0.00;;;;;;;8.11;100.00;99977.88;4941211;28;20023;-76
2024/01/21 07:08:08;;;;;;;0.00;0.00;;;;;;;7.96;100.00;99945.91;4950524;28;20034;-75
2024/01/21 07:10:34;;;;;;;0.00;0.00;;;;;;;8.09;100.00;99969.97;4988714;28;20093;-76
2024/01/21 07:12:59;;;;;;;0.00;0.00;;;;;;;7.99;100.00;99970.72;4974918;28;20050;-74
2024/01/21 07:15:25;;;;;;;0.00;0.00;;;;;;;7.99;100.00;99983.50;4983051;28;20397;-75
2024/01/21 07:17:50;;;;;;;0.00;0.00;;;;;;;7.92;100.00;99958.41;4953970;28;20089;-75
2024/01/21 07:20:16;;;;;;;0.00;0.00;;;;;;;7.91;100.00;99968.47;4982353;28;20049;-75
2024/01/21 07:22:41;;;;;;;0.00;0.00;;;;;;;7.95;100.00;99985.09;4943756;28;20081;-76
2024/01/21 07:25:07;;;;;;;0.00;0.00;;;;;;;7.83;100.00;99979.84;4939405;28;20011;-76
2024/01/21 07:27:34;;;;;;;0.00;0.00;;;;;;;7.92;100.00;99996.53;4973996;28;20019;-76
2024/01/21 07:30:00;;;;;;;0.00;0.00;;;;;;;7.88;100.00;100004.38;4957309;28;20023;-75
2024/01/21 07:32:27;;;;;;;0.00;0.00;;;;;;;7.86;100.00;100007.34;4971354;28;20130;-75
2024/01/21 07:34:53;;;;;;;0.00;0.00;;;;;;;7.84;100.00;100025.00;4953660;28;20031;-76
2024/01/21 07:37:24;;;;;;;0.00;0.00;;;;;;;7.76;100.00;100020.88;4960690;28;20036;-76
2024/01/21 07:39:49;;;;;;;0.00;0.00;;;;;;;7.70;100.00;100008.28;4964866;28;20030;-74
2024/01/21 07:42:18;;;;;;;0.00;0.00;;;;;;;7.57;100.00;100004.06;4973263;28;20019;-76
2024/01/21 07:44:53;;;;;;;0.00;0.00;;;;;;;7.55;100.00;100019.00;4987416;28;20030;-75
2024/01/21 07:47:19;;;;;;;0.00;0.00;;;;;;;7.45;100.00;100004.22;4965467;28;20039;-75
2024/01/21 07:49:46;;;;;;;0.00;0.00;;;;;;;7.42;100.00;99993.84;4966746;28;20034;-75
2024/01/21 07:52:12;;;;;;;0.00;0.00;;;;;;;7.51;100.00;100008.63;4958596;28;20022;-75
2024/01/21 07:54:38;;;;;;;0.00;0.00;;;;;;;7.62;100.00;100031.34;4971837;28;20026;-74
2024/01/21 07:57:03;;;;;;;0.00;0.00;;;;;;;7.63;100.00;100021.28;4960814;28;20473;-75
2024/01/21 07:59:29;;;;;;;0.00;0.00;;;;;;;7.69;100.00;100025.69;4982436;28;20109;-74
2024/01/21 08:01:54;;;;;;;0.00;0.00;;;;;;;7.70;100.00;100027.34;4984354;28;20575;-76
2024/01/21 08:04:19;;;;;;;0.00;0.00;;;;;;;7.65;100.00;100019.13;4990106;28;20049;-75
2024/01/21 08:06:45;;;;;;;0.00;0.00;;;;;;;7.75;100.00;100027.38;4947915;28;20098;-76
2024/01/21 08:09:10;;;;;;;0.00;0.00;;;;;;;7.76;100.00;100037.19;4951366;28;20030;-76
2024/01/21 08:11:39;;;;;;;0.00;0.00;;;;;;;7.89;100.00;100054.22;4968226;28;20109;-75
2024/01/21 08:14:07;;;;;;;0.00;0.00;;;;;;;7.79;100.00;100027.69;4948977;28;20122;-76
2024/01/21 08:16:35;;;;;;;0.00;0.00;;;;;;;7.94;100.00;100037.91;4961124;28;20057;-75
2024/01/21 08:19:00;;;;;;;0.00;0.00;;;;;;;7.99;100.00;100035.25;4958151;28;20147;-75
2024/01/21 08:21:25;;;;;;;0.00;0.00;;;;;;;8.01;100.00;100038.53;4949929;28;20026;-75
2024/01/21 08:23:51;;;;;;;0.00;0.00;;;;;;;8.06;100.00;100027.69;4954716;28;20022;-76
2024/01/21 08:26:17;;;;;;;0.00;0.00;;;;;;;8.03;100.00;100009.13;4973422;28;20102;-75
2024/01/21 08:28:44;;;;;;;0.00;0.00;;;;;;;8.00;100.00;99996.03;4956547;28;20076;-75
2024/01/21 08:31:09;;;;;;;0.00;0.00;;;;;;;8.10;100.00;100009.72;4934346;28;20030;-76
2024/01/21 08:33:36;;;;;;;0.00;0.00;;;;;;;8.00;100.00;99993.31;4949659;28;20478;-77
2024/01/21 08:36:01;;;;;;;0.00;0.00;;;;;;;8.05;100.00;99996.09;4982951;28;20057;-78
2024/01/21 08:38:27;;;;;;;0.00;0.00;;;;;;;8.12;100.00;100007.59;4974381;28;20022;-75
2024/01/21 08:40:52;;;;;;;0.00;0.00;;;;;;;8.18;100.00;100017.44;4983453;28;20019;-78
2024/01/21 08:43:18;;;;;;;0.00;0.00;;;;;;;8.21;100.00;100006.00;4970149;28;20472;-76
2024/01/21 08:45:45;;;;;;;0.00;0.00;;;;;;;8.07;100.00;100009.44;4985053;28;20026;-76
2024/01/21 08:48:11;;;;;;;0.00;0.00;;;;;;;8.10;100.00;99996.13;4961207;28;20026;-75
2024/01/21 08:50:36;;;;;;;0.00;0.00;;;;;;;8.29;100.00;100053.72;4976662;28;20031;-77
2024/01/21 08:53:04;;;;;;;0.00;0.00;;;;;;;8.31;100.00;100037.13;4961734;28;20188;-76
2024/01/21 08:55:32;;;;;;;0.00;0.00;;;;;;;8.31;100.00;100037.13;4961398;28;20030;-76
2024/01/21 08:57:57;;;;;;;0.08;0.08;;;;;;;8.43;100.00;100035.06;4960536;28;20022;-76
2024/01/21 09:00:24;;;;;;;0.00;0.00;;;;;;;8.49;100.00;100069.47;4985755;28;20029;-77
2024/01/21 09:02:49;;;;;;;0.10;0.10;;;;;;;8.40;100.00;100054.66;4954695;28;20034;-79
2024/01/21 09:05:20;;;;;;;0.00;0.00;;;;;;;8.53;100.00;100081.50;4951766;28;20041;-75
2024/01/21 09:07:47;;;;;;;0.00;0.00;;;;;;;8.43;100.00;100059.59;4963277;28;20033;-76
2024/01/21 09:10:17;;;;;;;0.00;0.00;;;;;;;8.47;100.00;100047.13;4960800;28;20145;-76
2024/01/21 09:12:42;;;;;;;0.00;0.00;;;;;;;8.62;100.00;100072.84;4931701;28;20488;-75
2024/01/21 09:15:08;;;;;;;0.00;0.00;;;;;;;8.66;100.00;100068.50;4966280;28;20054;-74
2024/01/21 09:17:34;;;;;;;0.08;0.08;;;;;;;8.83;100.00;100090.16;4962099;28;20030;-75
2024/01/21 09:19:59;;;;;;;0.00;0.00;;;;;;;9.04;100.00;100093.84;4954378;28;20026;-74
2024/01/21 09:22:26;;;;;;;0.00;0.00;;;;;;;9.20;100.00;100071.00;4972949;28;20113;-75
2024/01/21 09:24:56;;;;;;;0.00;0.00;;;;;;;9.51;100.00;100071.13;4943619;28;20528;-75
2024/01/21 09:27:25;;;;;;;0.00;0.00;;;;;;;9.83;100.00;100072.88;4991175;28;20030;-75
2024/01/21 09:29:59;;;;;;;0.00;0.00;;;;;;;10.00;100.00;100041.75;4984953;28;21760;-74
2024/01/21 09:32:28;;;;;;;;;;;;;;;10.40;100.00;100065.59;4969541;28;20019;-74
2024/01/21 09:34:55;;;;;;;0.00;0.00;;;;;;;10.34;100.00;100061.22;4960082;28;20494;-75
2024/01/21 09:37:23;;;;;;;0.00;0.00;;;;;;;10.28;100.00;100081.41;4968475;28;20027;-76
2024/01/21 09:39:49;;;;;;;0.00;0.00;;;;;;;10.56;100.00;100101.94;4955803;28;20134;-74
2024/01/21 09:42:17;;;;;;;0.00;0.00;;;;;;;10.44;100.00;100083.06;4979310;28;20504;-75
2024/01/21 09:44:43;;;;;;;0.00;0.00;;;;;;;10.27;100.00;100069.63;4973935;28;20046;-75
2024/01/21 09:47:10;;;;;;;0.00;0.00;;;;;;;10.12;100.00;100081.38;4983829;28;20373;-74
2024/01/21 09:49:36;;;;;;;0.00;0.00;;;;;;;9.99;100.00;100075.59;4990902;28;20030;-75
2024/01/21 09:52:04;;;;;;;0.00;0.00;;;;;;;9.92;100.00;100081.34;4968789;28;20022;-76
2024/01/21 10:37:50;;;;;;;0.00;0.00;;;;;;;10.46;100.00;100115.59;4662755;30;20112;-75
2024/01/21 10:40:18;;;;;;;0.00;0.00;;;;;;;10.36;100.00;100112.88;4813595;29;20080;-75
2024/01/21 10:42:47;;;;;;;0.00;0.00;;;;;;;10.28;100.00;100112.28;4934326;28;20049;-73
2024/01/21 10:45:13;;;;;;;0.00;0.00;;;;;;;10.29;100.00;100116.66;4951638;28;20034;-74
2024/01/21 10:47:41;;;;;;;0.00;0.00;;;;;;;10.28;100.00;100123.22;4973997;28;20366;-73
2024/01/21 10:50:08;;;;;;;0.00;0.00;;;;;;;10.41;100.00;100145.66;4986662;28;20045;-75
2024/01/21 10:52:35;;;;;;;0.00;0.00;;;;;;;10.37;100.00;100120.00;4977365;28;20081;-75
2024/01/21 10:55:00;;;;;;;0.00;0.00;;;;;;;10.47;100.00;100120.00;4971576;28;20030;-75
2024/01/21 10:57:26;;;;;;;0.00;0.00;;;;;;;10.56;100.00;100092.94;4953741;28;20030;-76
2024/01/21 10:59:51;;;;;;;0.00;0.00;;;;;;;10.65;100.00;100059.25;4964784;28;20031;-75
2024/01/21 11:02:19;;;;;;;0.10;0.10;;;;;;;10.88;100.00;100072.63;4963318;28;20038;-74
2024/01/21 11:04:47;;;;;;;0.00;0.00;;;;;;;11.24;100.00;100089.78;4966500;28;20034;-76
2024/01/21 11:07:16;;;;;;;0.00;0.00;;;;;;;11.37;100.00;100082.09;4986011;28;20104;-74
2024/01/21 11:09:45;;;;;;;0.00;0.00;;;;;;;11.77;99.22;100093.94;4966636;28;20072;-73
2024/01/21 11:12:12;;;;;;;0.00;0.00;;;;;;;12.30;95.46;100077.72;4970463;28;20161;-73
2024/01/21 11:14:39;;;;;;;0.00;0.00;;;;;;;13.26;89.11;100092.75;4959639;28;20019;-76
2024/01/21 11:17:10;;;;;;;0.00;0.00;;;;;;;14.26;84.96;100097.50;4974174;28;20062;-75
2024/01/21 11:19:54;;;;;;;0.00;0.00;;;;;;;13.86;82.36;100072.25;4970110;28;20035;-80
2024/01/21 11:22:23;;;;;;;;;;;;;;;14.24;81.15;100050.25;4979432;28;20041;-76
2024/01/21 11:25:19;;;;;;;0.00;0.00;;;;;;;13.92;82.25;100043.56;4955160;28;19925;-79
2024/01/21 11:27:43;;;;;;;0.00;0.00;;;;;;;14.07;81.25;100024.06;4964601;28;20049;-77
2024/01/21 11:30:10;;;;;;;0.00;0.00;;;;;;;14.05;80.27;100053.81;4969106;28;20030;-75
2024/01/21 11:32:59;;;;;;;;;;;;;;;;;;;;;
2024/01/21 11:35:30;;;;;;;0.00;0.00;;;;;;;12.82;86.79;100077.28;4986474;28;20033;-75
2024/01/21 11:38:38;;;;;;;0.00;0.00;;;;;;;12.33;90.39;100071.69;4986247;28;20046;-77
2024/01/21 11:41:04;;;;;;;0.00;0.00;;;;;;;11.83;92.98;100029.81;4962747;28;20081;-78
2024/01/21 11:43:36;;;;;;;0.00;0.00;;;;;;;11.89;94.78;100053.34;4976520;28;20039;-77
2024/01/21 11:46:17;;;;;;;;;;;;;;;;;;;;;
2024/01/21 11:48:51;;;;;;;0.00;0.00;;;;;;;11.51;97.12;99995.50;4978291;28;20029;-80
2024/01/21 11:51:26;;;;;;;0.00;0.00;;;;;;;11.84;96.49;100035.00;4990351;28;20083;-79
2024/01/21 11:53:52;;;;;;;0.00;0.00;;;;;;;11.85;96.25;99990.06;4971667;28;20018;-76
2024/01/21 11:56:18;;;;;;;0.00;0.00;;;;;;;11.82;95.59;99982.41;4986957;28;20023;-77
2024/01/21 11:58:44;;;;;;;0.00;0.00;;;;;;;11.72;95.50;99987.16;4956877;28;20628;-77
2024/01/21 12:01:09;;;;;;;0.00;0.00;;;;;;;11.94;96.45;100025.91;4981438;28;20026;-76
2024/01/21 12:03:35;;;;;;;0.00;0.00;;;;;;;11.92;95.94;100016.34;4970878;28;20022;-76
2024/01/21 12:06:00;;;;;;;0.00;0.00;;;;;;;12.14;94.37;100024.16;4979466;28;20035;-78
2024/01/21 12:08:46;;;;;;;0.00;0.00;;;;;;;12.05;94.20;100051.34;4971493;28;20457;-76
2024/01/21 12:11:13;;;;;;;0.00;0.00;;;;;;;11.87;94.37;99995.25;4963718;28;20033;-77
2024/01/21 12:13:49;;;;;;;0.00;0.00;;;;;;;11.74;95.73;99982.19;4974415;28;20034;-78
2024/01/21 12:16:17;;;;;;;0.00;0.00;;;;;;;11.84;95.37;99998.56;4976053;28;20030;-79
2024/01/21 12:18:44;;;;;;;0.00;0.00;;;;;;;11.89;96.24;100004.00;4979566;28;20034;-78
2024/01/21 12:21:23;;;;;;;;;;;;;;;;;;;;;
2024/01/21 12:23:51;;;;;;;0.00;0.00;;;;;;;11.89;96.30;99990.31;4981398;28;20109;-78